Time;durP1;ratioP1;P1;durP2;ratioP2;P2;SDS_P1;SDS_P2;PMS_P1;PMS_P2;Temp;Humidity;BMP_temperature;BMP_pressure;BME280_temperature;BME280_humidity;BME280_pressure;Samples;Min_cycle;Max_cycle;Signal;HPM_P1;HPM_P2
2021/05/01 00:01:48;;;;;;;;;;;;;;;4.94;89.57;98754.16;4973018;28;20046;-81
2021/05/01 00:04:14;;;;;;;;;;;;;;;4.97;89.39;98756.53;4959844;28;19954;-81
2021/05/01 00:06:40;;;;;;;;;;;;;;;4.97;89.29;98753.84;4943203;28;19927;-81
2021/05/01 00:09:06;;;;;;;;;;;;;;;5.00;88.65;98739.22;4954866;28;20433;-81
2021/05/01 00:11:34;;;;;;;;;;;;;;;4.95;88.80;98742.41;4952200;29;20395;-81
2021/05/01 00:14:00;;;;;;;;;;;;;;;4.88;89.41;98743.19;4966117;28;19934;-81
2021/05/01 00:16:27;;;;;;;;;;;;;;;4.86;89.25;98735.25;4944319;29;19978;-81
2021/05/01 00:18:53;;;;;;;;;;;;;;;4.96;89.20;98743.22;4952358;28;20068;-81
2021/05/01 00:21:22;;;;;;;;;;;;;;;4.98;89.10;98735.81;4957290;28;20156;-81
2021/05/01 00:23:52;;;;;;;;;;;;;;;5.07;88.23;98740.28;4942393;28;19927;-81
2021/05/01 00:26:18;;;;;;;;;;;;;;;4.95;88.85;98734.31;4947999;28;19930;-81
2021/05/01 00:28:45;;;;;;;;;;;;;;;4.93;89.36;98740.84;4952588;29;19930;-81
2021/05/01 00:31:11;;;;;;;;;;;;;;;4.90;89.30;98742.00;4964127;28;20271;-80
2021/05/01 00:33:39;;;;;;;;;;;;;;;4.92;89.23;98741.84;4953404;29;19958;-80
2021/05/01 00:36:05;;;;;;;;;;;;;;;4.84;89.49;98736.44;4954005;28;19927;-80
2021/05/01 00:38:36;;;;;;;;;;;;;;;4.76;89.61;98743.44;4952548;28;19926;-80
2021/05/01 00:41:02;;;;;;;;;;;;;;;4.83;89.38;98740.13;4946656;28;19977;-80
2021/05/01 00:43:28;;;;;;;;;;;;;;;4.84;89.23;98741.81;4947282;29;19926;-80
2021/05/01 00:45:55;;;;;;;;;;;;;;;4.85;88.99;98738.97;4953734;28;19949;-80
2021/05/01 00:48:22;;;;;;;;;;;;;;;4.82;88.96;98733.88;4951817;29;20258;-80
2021/05/01 00:50:48;;;;;;;;;;;;;;;4.74;89.30;98737.38;4957926;28;20358;-80
2021/05/01 00:53:14;;;;;;;;;;;;;;;4.73;89.64;98732.16;4952520;29;20068;-79
2021/05/01 00:55:41;;;;;;;;;;;;;;;4.71;89.39;98731.44;4952736;28;19926;-80
2021/05/01 00:58:08;;;;;;;;;;;;;;;4.75;88.98;98727.44;4964703;28;19930;-80
2021/05/01 01:03:24;;;;;;;;;;;;;;;4.47;88.38;98732.97;4938681;28;19977;-81
2021/05/01 01:05:50;;;;;;;;;;;;;;;4.42;88.52;98725.34;4971887;28;19926;-80
2021/05/01 01:08:16;;;;;;;;;;;;;;;4.39;88.22;98724.81;4977081;28;19927;-80
2021/05/01 01:10:42;;;;;;;;;;;;;;;4.35;88.12;98712.66;4971877;28;19941;-80
2021/05/01 01:13:08;;;;;;;;;;;;;;;4.27;88.61;98718.00;4979902;28;19996;-79
2021/05/01 01:15:34;;;;;;;;;;;;;;;4.17;88.45;98718.94;4971001;28;20369;-80
2021/05/01 01:18:00;;;;;;;;;;;;;;;4.34;89.59;98717.22;4976066;28;19933;-80
2021/05/01 01:20:27;;;;;;;;;;;;;;;4.35;89.21;98718.06;4989543;28;19989;-80
2021/05/01 01:22:54;;;;;;;;;;;;;;;4.20;88.79;98724.00;4971777;28;20004;-80
2021/05/01 01:25:20;;;;;;;;;;;;;;;4.10;90.02;98723.25;4985775;28;19969;-80
2021/05/01 01:27:47;;;;;;;;;;;;;;;4.14;89.41;98724.63;4973436;28;19926;-81
2021/05/01 01:30:14;;;;;;;;;;;;;;;4.13;88.71;98724.78;4974377;28;19933;-80
2021/05/01 01:32:40;;;;;;;;;;;;;;;4.13;88.61;98725.63;4971396;28;19926;-80
2021/05/01 01:35:07;;;;;;;;;;;;;;;4.12;87.70;98707.78;4975971;28;19933;-80
2021/05/01 01:37:33;;;;;;;;;;;;;;;4.00;87.67;98709.03;4971264;28;19934;-80
2021/05/01 01:40:00;;;;;;;;;;;;;;;3.86;88.52;98726.53;4974720;28;19926;-80
2021/05/01 01:42:26;;;;;;;;;;;;;;;3.84;89.00;98723.16;4975286;28;19929;-80
2021/05/01 01:44:52;;;;;;;;;;;;;;;3.79;89.00;98728.16;4974732;28;19981;-80
2021/05/01 01:47:18;;;;;;;;;;;;;;;3.88;89.54;98730.78;4967415;28;19926;-80
2021/05/01 01:49:44;;;;;;;;;;;;;;;3.90;88.86;98738.69;4975028;28;19930;-80
2021/05/01 01:52:10;;;;;;;;;;;;;;;3.82;88.26;98734.06;4975534;28;19933;-81
2021/05/01 01:54:36;;;;;;;;;;;;;;;3.85;88.32;98735.59;4974293;28;19933;-80
2021/05/01 01:57:03;;;;;;;;;;;;;;;3.81;88.28;98729.69;4978421;28;19930;-80
2021/05/01 01:59:29;;;;;;;;;;;;;;;3.84;88.42;98731.22;4975067;28;19926;-80
2021/05/01 02:01:56;;;;;;;;;;;;;;;3.81;88.50;98723.44;4975439;28;19930;-80
2021/05/01 02:04:22;;;;;;;;;;;;;;;3.68;89.47;98722.00;4973515;28;19937;-81
2021/05/01 02:06:48;;;;;;;;;;;;;;;3.66;89.35;98720.47;4975031;28;20038;-80
2021/05/01 02:09:14;;;;;;;;;;;;;;;3.62;89.58;98719.06;4987410;28;19989;-80
2021/05/01 02:11:40;;;;;;;;;;;;;;;3.65;90.32;98727.66;4975736;28;19926;-80
2021/05/01 02:14:07;;;;;;;;;;;;;;;3.59;89.94;98730.13;4976621;28;19926;-80
2021/05/01 02:16:34;;;;;;;;;;;;;;;3.61;89.70;98728.13;4974777;28;19926;-80
2021/05/01 02:19:00;;;;;;;;;;;;;;;3.65;90.42;98735.72;4981299;28;19929;-80
2021/05/01 02:21:26;;;;;;;;;;;;;;;3.66;90.48;98733.91;4973160;28;20370;-80
2021/05/01 02:23:52;;;;;;;;;;;;;;;3.70;90.35;98725.38;4983648;28;20401;-80
2021/05/01 02:26:18;;;;;;;;;;;;;;;3.71;90.27;98716.31;4987690;28;19926;-80
2021/05/01 02:28:44;;;;;;;;;;;;;;;3.76;90.03;98715.00;4974676;28;19930;-80
2021/05/01 02:31:12;;;;;;;;;;;;;;;3.79;90.31;98718.22;4955573;29;19930;-80
2021/05/01 02:33:37;;;;;;;;;;;;;;;3.77;90.19;98733.69;4978702;28;20000;-80
2021/05/01 02:36:04;;;;;;;;;;;;;;;3.82;90.62;98723.28;4989468;28;19929;-79
2021/05/01 02:38:30;;;;;;;;;;;;;;;3.87;89.66;98718.31;4977094;28;19961;-80
2021/05/01 02:40:56;;;;;;;;;;;;;;;3.86;89.11;98705.88;4981600;28;19981;-81
2021/05/01 02:43:22;;;;;;;;;;;;;;;3.77;88.77;98706.78;4989504;28;19933;-81
2021/05/01 02:45:48;;;;;;;;;;;;;;;3.68;89.23;98699.66;4978134;28;19961;-80
2021/05/01 02:48:15;;;;;;;;;;;;;;;3.71;89.17;98696.66;4974207;28;19934;-80
2021/05/01 02:50:41;;;;;;;;;;;;;;;3.73;89.20;98691.94;4977308;28;19937;-81
2021/05/01 02:53:07;;;;;;;;;;;;;;;3.63;88.81;98688.47;4980692;28;19930;-80
2021/05/01 02:55:34;;;;;;;;;;;;;;;3.62;88.83;98686.81;4975315;28;19981;-80
2021/05/01 02:58:00;;;;;;;;;;;;;;;3.61;88.77;98688.63;4993087;28;19926;-80
2021/05/01 03:00:27;;;;;;;;;;;;;;;3.60;89.35;98688.78;4989539;28;19996;-80
2021/05/01 03:02:52;;;;;;;;;;;;;;;3.69;89.26;98680.66;4974250;28;19985;-80
2021/05/01 03:05:20;;;;;;;;;;;;;;;3.68;88.86;98672.75;4979473;28;19926;-80
2021/05/01 03:07:47;;;;;;;;;;;;;;;3.67;89.43;98679.13;4973898;28;19927;-80
2021/05/01 03:10:14;;;;;;;;;;;;;;;3.61;89.64;98667.13;4980515;28;19958;-80
2021/05/01 03:12:41;;;;;;;;;;;;;;;3.68;90.06;98667.38;4965575;28;19933;-80
2021/05/01 03:15:08;;;;;;;;;;;;;;;3.73;90.12;98657.00;4977666;28;19925;-79
2021/05/01 03:17:34;;;;;;;;;;;;;;;3.73;89.97;98654.31;4973370;28;20420;-80
2021/05/01 03:20:00;;;;;;;;;;;;;;;3.75;90.45;98657.72;4984598;28;19933;-80
2021/05/01 03:22:27;;;;;;;;;;;;;;;3.70;90.82;98654.63;4958630;28;19927;-80
2021/05/01 03:24:53;;;;;;;;;;;;;;;3.67;91.25;98649.56;4982200;28;20290;-80
2021/05/01 03:27:19;;;;;;;;;;;;;;;3.82;90.87;98644.47;4978616;28;19934;-80
2021/05/01 03:29:45;;;;;;;;;;;;;;;3.73;91.38;98635.50;4972228;28;19965;-80
2021/05/01 03:32:11;;;;;;;;;;;;;;;3.71;92.00;98632.97;4973234;28;20000;-79
2021/05/01 03:34:37;;;;;;;;;;;;;;;3.66;92.10;98643.34;4972582;28;19926;-80
2021/05/01 03:37:03;;;;;;;;;;;;;;;3.56;92.25;98647.94;4970103;28;19949;-79
2021/05/01 03:39:30;;;;;;;;;;;;;;;3.59;92.39;98639.56;4977233;28;19930;-80
2021/05/01 03:41:56;;;;;;;;;;;;;;;3.64;91.63;98631.03;4975532;28;19971;-80
2021/05/01 03:44:22;;;;;;;;;;;;;;;3.55;92.37;98632.81;4974484;28;19926;-81
2021/05/01 03:46:48;;;;;;;;;;;;;;;3.60;92.58;98646.66;4966979;28;20374;-81
2021/05/01 03:49:14;;;;;;;;;;;;;;;3.64;92.41;98653.38;4972821;28;19934;-80
2021/05/01 03:51:40;;;;;;;;;;;;;;;3.72;92.37;98658.03;4973078;28;19926;-81
2021/05/01 03:54:06;;;;;;;;;;;;;;;3.60;93.63;98664.59;4991675;28;19932;-80
2021/05/01 03:56:34;;;;;;;;;;;;;;;3.64;92.68;98671.38;4973516;28;19973;-81
2021/05/01 03:59:00;;;;;;;;;;;;;;;3.65;93.20;98667.69;4989949;28;19933;-81
2021/05/01 04:01:26;;;;;;;;;;;;;;;3.71;92.97;98661.69;4962019;28;19930;-81
2021/05/01 04:03:52;;;;;;;;;;;;;;;3.73;93.00;98654.31;4978131;28;19934;-80
2021/05/01 04:06:18;;;;;;;;;;;;;;;3.76;92.95;98656.69;4973862;28;20302;-80
2021/05/01 04:08:44;;;;;;;;;;;;;;;3.80;92.41;98659.94;4978860;28;20281;-80
2021/05/01 04:11:11;;;;;;;;;;;;;;;3.69;92.59;98666.41;4990220;28;19926;-79
2021/05/01 04:13:43;;;;;;;;;;;;;;;3.75;92.52;98663.09;4974507;28;19926;-80
2021/05/01 04:16:09;;;;;;;;;;;;;;;3.84;92.79;98664.84;4972480;28;19932;-80
2021/05/01 04:18:35;;;;;;;;;;;;;;;3.84;92.71;98667.53;4973650;28;19935;-80
2021/05/01 04:21:01;;;;;;;;;;;;;;;3.79;92.48;98675.19;4980007;28;19933;-80
2021/05/01 04:23:27;;;;;;;;;;;;;;;3.69;92.68;98677.16;4972266;28;19926;-79
2021/05/01 04:26:06;;;;;;;;;;;;;;;3.79;92.90;98674.38;4981387;28;20374;-80
2021/05/01 04:28:32;;;;;;;;;;;;;;;3.84;92.49;98663.97;4965891;28;19966;-79
2021/05/01 04:30:59;;;;;;;;;;;;;;;3.90;91.99;98677.69;4980534;28;19933;-80
2021/05/01 04:33:25;;;;;;;;;;;;;;;4.06;90.90;98671.59;4970182;28;19934;-80
2021/05/01 04:35:52;;;;;;;;;;;;;;;3.97;91.12;98679.75;4989195;28;19957;-79
2021/05/01 04:38:18;;;;;;;;;;;;;;;3.92;91.22;98677.53;4979953;28;20415;-80
2021/05/01 04:40:44;;;;;;;;;;;;;;;3.99;91.18;98683.13;4972274;28;19926;-80
2021/05/01 04:43:11;;;;;;;;;;;;;;;3.93;91.72;98679.22;4975537;28;20333;-80
2021/05/01 04:45:37;;;;;;;;;;;;;;;3.96;91.74;98683.44;4971694;28;19984;-80
2021/05/01 04:48:05;;;;;;;;;;;;;;;4.13;91.29;98668.28;4973797;28;19973;-80
2021/05/01 04:50:31;;;;;;;;;;;;;;;4.15;90.74;98664.41;4981181;28;19926;-80
2021/05/01 04:52:58;;;;;;;;;;;;;;;4.26;90.48;98660.66;4957069;28;19933;-80
2021/05/01 04:55:25;;;;;;;;;;;;;;;4.17;90.91;98667.81;4979172;28;19930;-80
2021/05/01 04:57:52;;;;;;;;;;;;;;;4.18;91.22;98665.97;4973285;28;20290;-80
2021/05/01 05:00:18;;;;;;;;;;;;;;;4.14;90.99;98668.13;4986820;28;19934;-80
2021/05/01 05:02:45;;;;;;;;;;;;;;;4.21;91.01;98663.78;4971732;28;19993;-80
2021/05/01 05:05:14;;;;;;;;;;;;;;;4.31;90.68;98663.72;4980502;28;19941;-80
2021/05/01 05:07:40;;;;;;;;;;;;;;;4.42;90.46;98668.00;4971093;28;20445;-80
2021/05/01 05:10:07;;;;;;;;;;;;;;;4.37;89.96;98659.56;4972033;28;20008;-80
2021/05/01 05:12:33;;;;;;;;;;;;;;;4.36;90.51;98656.00;4971133;28;20294;-80
2021/05/01 05:14:59;;;;;;;;;;;;;;;4.45;90.65;98656.91;4969284;28;19949;-80
2021/05/01 05:17:25;;;;;;;;;;;;;;;4.41;90.86;98655.53;4983092;28;19964;-80
2021/05/01 05:19:51;;;;;;;;;;;;;;;4.48;90.86;98661.97;4976098;28;19933;-80
2021/05/01 05:22:18;;;;;;;;;;;;;;;4.47;90.67;98668.38;4985070;28;19933;-79
2021/05/01 05:24:44;;;;;;;;;;;;;;;4.47;90.78;98667.50;4974902;28;19930;-80
2021/05/01 05:27:10;;;;;;;;;;;;;;;4.58;91.06;98670.78;4989221;28;19932;-80
2021/05/01 05:29:36;;;;;;;;;;;;;;;4.61;91.03;98673.16;4984355;28;19969;-80
2021/05/01 05:32:04;;;;;;;;;;;;;;;4.70;91.16;98678.63;4974305;28;19926;-80
2021/05/01 05:34:30;;;;;;;;;;;;;;;4.68;90.88;98688.69;4972918;28;19981;-80
2021/05/01 05:36:56;;;;;;;;;;;;;;;4.76;90.62;98684.19;4975783;28;19934;-80
2021/05/01 05:39:23;;;;;;;;;;;;;;;4.71;90.35;98677.59;4976384;28;19934;-79
2021/05/01 05:41:49;;;;;;;;;;;;;;;4.62;90.74;98679.38;4974543;28;19937;-79
2021/05/01 05:44:16;;;;;;;;;;;;;;;4.78;90.94;98678.66;4976294;28;19929;-79
2021/05/01 05:46:42;;;;;;;;;;;;;;;4.96;89.78;98684.78;4975126;28;19926;-80
2021/05/01 05:49:08;;;;;;;;;;;;;;;5.00;89.33;98677.25;4980157;28;20317;-80
2021/05/01 05:51:35;;;;;;;;;;;;;;;5.02;89.38;98671.69;4983128;28;20378;-79
2021/05/01 05:54:01;;;;;;;;;;;;;;;5.06;88.98;98663.13;4995153;28;19957;-79
2021/05/01 05:56:28;;;;;;;;;;;;;;;5.19;88.39;98651.06;4978907;28;19926;-79
2021/05/01 05:58:54;;;;;;;;;;;;;;;5.14;88.36;98643.47;4976659;28;19926;-80
2021/05/01 06:01:23;;;;;;;;;;;;;;;5.20;89.26;98639.28;4979504;28;19961;-80
2021/05/01 06:03:50;;;;;;;;;;;;;;;5.38;88.49;98636.47;4981886;28;20345;-80
2021/05/01 06:06:20;;;;;;;;;;;;;;;5.20;88.88;98645.50;4986362;28;19929;-79
2021/05/01 06:08:46;;;;;;;;;;;;;;;5.08;89.13;98644.94;4977128;28;19926;-80
2021/05/01 06:11:13;;;;;;;;;;;;;;;5.17;89.43;98643.13;4975329;28;19933;-80
2021/05/01 06:13:40;;;;;;;;;;;;;;;5.19;nan;98640.28;4988889;28;19949;-79
2021/05/01 06:16:07;;;;;;;;;;;;;;;5.13;89.27;98648.00;4958108;28;19930;-79
2021/05/01 06:18:35;;;;;;;;;;;;;;;5.36;89.31;98657.34;4986231;28;19941;-79
2021/05/01 06:21:01;;;;;;;;;;;;;;;5.42;88.72;98648.59;4975071;28;19930;-79
2021/05/01 06:23:27;;;;;;;;;;;;;;;5.56;88.19;98639.03;4976983;28;20377;-79
2021/05/01 06:25:54;;;;;;;;;;;;;;;5.68;87.13;98645.78;4973689;28;19981;-79
2021/05/01 06:28:21;;;;;;;;;;;;;;;5.85;86.94;98636.69;4975325;28;19989;-80
2021/05/01 06:30:48;;;;;;;;;;;;;;;6.40;85.79;98628.09;4967043;28;19927;-80
2021/05/01 06:33:15;;;;;;;;;;;;;;;6.77;83.59;98629.38;4963115;28;19926;-79
2021/05/01 06:35:50;;;;;;;;;;;;;;;7.08;82.83;98635.66;4979635;28;19930;-79
2021/05/01 06:38:16;;;;;;;;;;;;;;;7.18;84.00;98640.88;4984837;28;20009;-79
2021/05/01 06:40:44;;;;;;;;;;;;;;;7.12;83.13;98641.59;4978238;28;19926;-79
2021/05/01 06:43:14;;;;;;;;;;;;;;;7.02;83.86;98643.66;4985340;28;19930;-80
2021/05/01 06:45:45;;;;;;;;;;;;;;;7.16;83.56;98653.72;4973866;28;19926;-80
2021/05/01 06:48:14;;;;;;;;;;;;;;;6.90;84.17;98652.13;4973320;28;19926;-81
2021/05/01 06:50:42;;;;;;;;;;;;;;;6.91;84.58;98651.09;4982797;28;20297;-79
2021/05/01 06:53:09;;;;;;;;;;;;;;;7.15;83.94;98651.19;4978252;28;19926;-80
2021/05/01 06:55:35;;;;;;;;;;;;;;;7.09;84.28;98655.41;4973328;28;19941;-80
2021/05/01 06:58:03;;;;;;;;;;;;;;;7.47;83.17;98643.91;4973082;28;19926;-80
2021/05/01 07:00:34;;;;;;;;;;;;;;;7.75;82.39;98644.25;4975230;28;19926;-81
2021/05/01 07:03:11;;;;;;;;;;;;;;;7.89;80.80;98659.72;4977501;28;20321;-80
2021/05/01 07:05:38;;;;;;;;;;;;;;;7.87;81.54;98656.34;4977876;28;20341;-80
2021/05/01 07:08:05;;;;;;;;;;;;;;;8.08;80.35;98657.56;4982894;28;20401;-82
2021/05/01 07:10:34;;;;;;;;;;;;;;;8.19;79.02;98657.16;4982090;28;20020;-80
2021/05/01 07:13:08;;;;;;;;;;;;;;;8.36;78.19;98655.13;4990677;28;19980;-81
2021/05/01 07:15:34;;;;;;;;;;;;;;;8.39;75.71;98648.50;4978228;28;19988;-81
2021/05/01 07:18:01;;;;;;;;;;;;;;;8.34;77.23;98649.06;4993015;28;19926;-81
2021/05/01 07:20:26;;;;;;;;;;;;;;;8.30;76.69;98650.44;4981541;28;20290;-80
2021/05/01 07:22:54;;;;;;;;;;;;;;;8.43;76.20;98647.97;4981018;28;19984;-80
2021/05/01 07:25:21;;;;;;;;;;;;;;;8.34;76.40;98640.94;4982409;28;19930;-79
2021/05/01 07:27:52;;;;;;;;;;;;;;;8.55;75.21;98633.97;4977569;28;20527;-78
2021/05/01 07:30:19;;;;;;;;;;;;;;;8.08;76.38;98625.06;4994995;28;19976;-80
2021/05/01 07:32:48;;;;;;;;;;;;;;;8.25;76.22;98618.50;4978449;28;19985;-81
2021/05/01 07:35:16;;;;;;;;;;;;;;;8.41;75.49;98616.66;4975000;28;19926;-80
2021/05/01 07:37:43;;;;;;;;;;;;;;;8.43;75.05;98615.44;4975131;28;20039;-80
2021/05/01 07:40:12;;;;;;;;;;;;;;;8.62;73.92;98613.25;4975744;28;19992;-80
2021/05/01 07:42:39;;;;;;;;;;;;;;;8.67;74.20;98619.81;4982257;28;19926;-80
2021/05/01 07:45:06;;;;;;;;;;;;;;;8.83;72.52;98617.94;4974987;28;19930;-80
2021/05/01 07:47:33;;;;;;;;;;;;;;;8.45;74.53;98620.72;4975600;28;20370;-80
2021/05/01 07:49:59;;;;;;;;;;;;;;;8.78;73.49;98625.78;4974996;28;19927;-81
2021/05/01 07:52:29;;;;;;;;;;;;;;;8.55;74.54;98624.00;4975199;28;19933;-81
2021/05/01 07:54:55;;;;;;;;;;;;;;;8.35;73.79;98626.34;4974699;28;19930;-81
2021/05/01 07:57:22;;;;;;;;;;;;;;;8.61;75.36;98627.81;4978964;28;19933;-81
2021/05/01 07:59:48;;;;;;;;;;;;;;;8.64;74.21;98619.31;4992597;28;20329;-81
2021/05/01 08:02:14;;;;;;;;;;;;;;;8.76;73.36;98617.00;4994742;28;19937;-80
2021/05/01 08:04:41;;;;;;;;;;;;;;;8.77;72.92;98608.66;4992001;28;19926;-79
2021/05/01 08:07:07;;;;;;;;;;;;;;;8.76;72.86;98607.00;4993856;28;19985;-80
2021/05/01 08:09:33;;;;;;;;;;;;;;;8.88;72.19;98614.66;4994245;28;19925;-78
2021/05/01 08:11:59;;;;;;;;;;;;;;;9.09;72.15;98609.31;4974364;28;19926;-79
2021/05/01 08:14:26;;;;;;;;;;;;;;;9.38;70.30;98607.59;4974376;28;20016;-79
2021/05/01 08:16:52;;;;;;;;;;;;;;;9.34;70.47;98617.13;4974801;28;19933;-80
2021/05/01 08:19:18;;;;;;;;;;;;;;;9.06;69.75;98620.53;4975113;28;20293;-80
2021/05/01 08:21:44;;;;;;;;;;;;;;;9.14;68.94;98616.91;4974759;28;20271;-78
2021/05/01 08:24:11;;;;;;;;;;;;;;;9.06;71.66;98612.38;4974282;28;19926;-79
2021/05/01 08:26:40;;;;;;;;;;;;;;;9.01;71.57;98607.53;4974119;28;19961;-79
2021/05/01 08:29:06;;;;;;;;;;;;;;;8.90;69.48;98615.28;4974856;28;19926;-79
2021/05/01 08:31:35;;;;;;;;;;;;;;;8.97;70.53;98622.53;4974902;28;19956;-79
2021/05/01 08:34:02;;;;;;;;;;;;;;;9.01;71.00;98631.94;4985382;28;20296;-79
2021/05/01 08:36:28;;;;;;;;;;;;;;;8.80;71.18;98638.09;4983296;28;19926;-79
2021/05/01 08:38:54;;;;;;;;;;;;;;;8.82;73.36;98627.94;4974114;28;19926;-79
2021/05/01 08:41:24;;;;;;;;;;;;;;;8.62;74.96;98624.09;4974553;28;19984;-79
2021/05/01 08:43:50;;;;;;;;;;;;;;;8.53;75.05;98631.47;4984913;28;19934;-79
2021/05/01 08:46:22;;;;;;;;;;;;;;;8.45;75.38;98629.69;4973994;28;19948;-80
2021/05/01 08:48:49;;;;;;;;;;;;;;;8.46;75.66;98633.22;4973590;28;19933;-80
2021/05/01 08:51:15;;;;;;;;;;;;;;;8.45;74.62;98634.25;4994062;28;19988;-80
2021/05/01 08:53:42;;;;;;;;;;;;;;;8.55;75.89;98628.56;4984954;28;20015;-79
2021/05/01 08:56:08;;;;;;;;;;;;;;;8.48;76.01;98629.31;4974380;28;19934;-79
2021/05/01 08:58:34;;;;;;;;;;;;;;;8.32;77.09;98629.44;4974217;28;19977;-78
2021/05/01 09:01:00;;;;;;;;;;;;;;;8.26;77.73;98632.88;4964183;28;19986;-80
2021/05/01 09:03:26;;;;;;;;;;;;;;;8.26;76.99;98631.00;4974303;28;19980;-81
2021/05/01 09:05:56;;;;;;;;;;;;;;;8.16;77.78;98630.44;4957919;28;19934;-80
2021/05/01 09:08:23;;;;;;;;;;;;;;;8.24;78.52;98637.63;4955150;29;19926;-80
2021/05/01 09:10:49;;;;;;;;;;;;;;;8.32;77.32;98641.13;4955102;29;19927;-80
2021/05/01 09:13:17;;;;;;;;;;;;;;;8.23;77.97;98647.59;4948511;28;19934;-80
2021/05/01 09:15:54;;;;;;;;;;;;;;;8.19;78.50;98649.03;4949693;29;19977;-81
2021/05/01 09:18:20;;;;;;;;;;;;;;;8.26;78.62;98646.41;4940646;28;20010;-81
2021/05/01 09:20:46;;;;;;;;;;;;;;;8.39;78.82;98637.69;4952472;29;19933;-81
2021/05/01 09:23:13;;;;;;;;;;;;;;;8.39;79.43;98635.81;4967120;28;19926;-81
2021/05/01 09:25:47;;;;;;;;;;;;;;;8.38;78.74;98649.53;4974711;28;19931;-81
2021/05/01 09:28:14;;;;;;;;;;;;;;;8.35;78.84;98639.88;4974504;28;19941;-81
2021/05/01 09:30:41;;;;;;;;;;;;;;;8.38;78.96;98644.09;4974303;28;20289;-81
2021/05/01 09:33:24;;;;;;;;;;;;;;;8.54;77.88;98635.84;4972648;28;19972;-81
2021/05/01 09:35:52;;;;;;;;;;;;;;;8.64;78.48;98632.88;4970072;28;19933;-81
2021/05/01 09:38:19;;;;;;;;;;;;;;;8.59;78.49;98630.72;4954809;29;19985;-81
2021/05/01 09:40:46;;;;;;;;;;;;;;;8.69;77.75;98619.63;4954766;29;19927;-81
2021/05/01 09:43:12;;;;;;;;;;;;;;;8.84;77.47;98606.06;4954672;29;19927;-81
2021/05/01 09:45:38;;;;;;;;;;;;;;;8.82;78.28;98608.97;4955466;29;19934;-81
2021/05/01 09:48:11;;;;;;;;;;;;;;;8.93;76.72;98602.22;4960646;28;19926;-81
2021/05/01 09:50:37;;;;;;;;;;;;;;;8.96;75.80;98595.59;4965384;28;19927;-81
2021/05/01 09:53:05;;;;;;;;;;;;;;;8.96;76.98;98603.72;4959522;28;19926;-81
2021/05/01 09:55:45;;;;;;;;;;;;;;;8.98;80.96;98598.94;4969344;28;20375;-81
2021/05/01 09:58:16;;;;;;;;;;;;;;;9.07;78.40;98611.38;4953555;29;19926;-81
2021/05/01 10:00:42;;;;;;;;;;;;;;;8.98;78.29;98612.50;4957402;28;19926;-81
2021/05/01 10:03:21;;;;;;;;;;;;;;;9.17;76.61;98611.09;4958314;28;19927;-81
2021/05/01 10:05:48;;;;;;;;;;;;;;;9.26;77.03;98609.09;4957578;29;19927;-81
2021/05/01 10:08:15;;;;;;;;;;;;;;;9.19;73.18;98601.72;4967060;28;20016;-81
2021/05/01 10:10:42;;;;;;;;;;;;;;;9.23;74.38;98601.34;4996455;28;19972;-81
2021/05/01 10:13:09;;;;;;;;;;;;;;;9.09;73.46;98603.03;4981957;28;19926;-81
2021/05/01 10:15:35;;;;;;;;;;;;;;;8.99;75.21;98592.50;4981683;28;20044;-81
2021/05/01 10:18:08;;;;;;;;;;;;;;;8.96;76.02;98595.59;4982760;28;20528;-80
2021/05/01 10:20:39;;;;;;;;;;;;;;;9.20;72.99;98597.16;4987171;28;19930;-81
2021/05/01 10:23:06;;;;;;;;;;;;;;;9.07;74.95;98596.97;4977153;28;19936;-81
2021/05/01 10:25:33;;;;;;;;;;;;;;;8.92;76.94;98589.69;4986855;28;19981;-81
2021/05/01 10:28:02;;;;;;;;;;;;;;;9.04;75.57;98595.47;4996265;28;20425;-81
2021/05/01 10:30:30;;;;;;;;;;;;;;;9.23;77.34;98594.06;4971788;28;19926;-81
2021/05/01 10:32:59;;;;;;;;;;;;;;;9.09;75.09;98595.75;4977102;28;19930;-81
2021/05/01 10:35:29;;;;;;;;;;;;;;;9.21;74.84;98586.13;4976394;28;19969;-81
2021/05/01 10:37:56;;;;;;;;;;;;;;;9.38;71.54;98586.72;4976559;28;20386;-80
2021/05/01 10:40:23;;;;;;;;;;;;;;;9.39;72.67;98590.25;4978274;28;19934;-81
2021/05/01 10:43:03;;;;;;;;;;;;;;;9.52;72.87;98590.41;4976442;28;19930;-80
2021/05/01 10:45:30;;;;;;;;;;;;;;;9.47;71.89;98587.44;4975473;28;20407;-80
2021/05/01 10:48:03;;;;;;;;;;;;;;;9.71;73.03;98590.81;4976540;28;19973;-80
2021/05/01 10:50:29;;;;;;;;;;;;;;;9.80;72.36;98586.94;4976469;28;19926;-80
2021/05/01 10:52:55;;;;;;;;;;;;;;;9.89;71.10;98577.63;4976418;28;19934;-80
2021/05/01 10:55:22;;;;;;;;;;;;;;;10.31;68.55;98571.47;4977038;28;19980;-80
2021/05/01 10:57:55;;;;;;;;;;;;;;;10.33;70.67;98578.44;4977625;28;19926;-80
2021/05/01 11:00:22;;;;;;;;;;;;;;;10.41;67.35;98575.56;4995202;28;19925;-80
2021/05/01 11:03:01;;;;;;;;;;;;;;;10.36;69.68;98582.66;4995153;28;19926;-80
2021/05/01 11:05:30;;;;;;;;;;;;;;;10.25;67.77;98581.25;4994233;28;19926;-80
2021/05/01 11:08:02;;;;;;;;;;;;;;;10.07;67.51;98581.72;4995466;28;19930;-80
2021/05/01 11:10:29;;;;;;;;;;;;;;;10.08;69.33;98576.09;4985324;28;19926;-80
2021/05/01 11:12:56;;;;;;;;;;;;;;;9.77;69.34;98572.91;4973913;28;19941;-80
2021/05/01 11:15:23;;;;;;;;;;;;;;;10.15;67.75;98569.91;4979643;28;20402;-80
2021/05/01 11:18:00;;;;;;;;;;;;;;;10.17;69.15;98574.09;4985370;28;19948;-81
2021/05/01 11:20:28;;;;;;;;;;;;;;;10.22;70.02;98574.38;4979012;28;19926;-80
2021/05/01 11:22:54;;;;;;;;;;;;;;;10.22;68.32;98576.22;4975344;28;19933;-81
2021/05/01 11:25:20;;;;;;;;;;;;;;;10.23;71.09;98581.44;4974745;28;19958;-80
2021/05/01 11:27:47;;;;;;;;;;;;;;;10.23;67.49;98580.63;4975713;28;19934;-80
2021/05/01 11:30:15;;;;;;;;;;;;;;;10.07;68.67;98577.16;4975779;28;20275;-80
2021/05/01 11:32:41;;;;;;;;;;;;;;;10.12;67.00;98576.56;4979001;28;19926;-79
2021/05/01 11:35:08;;;;;;;;;;;;;;;9.98;68.09;98575.63;4988621;28;20305;-80
2021/05/01 11:37:38;;;;;;;;;;;;;;;10.04;69.79;98582.13;4981930;28;19926;-81
2021/05/01 11:40:05;;;;;;;;;;;;;;;9.85;68.61;98579.06;4975399;28;19926;-80
2021/05/01 11:42:36;;;;;;;;;;;;;;;10.20;65.00;98568.28;4981809;28;19925;-80
2021/05/01 11:45:04;;;;;;;;;;;;;;;10.16;68.39;98575.16;4983695;28;19926;-80
2021/05/01 11:47:31;;;;;;;;;;;;;;;10.21;66.11;98571.84;4983223;28;19926;-80
2021/05/01 11:49:57;;;;;;;;;;;;;;;10.55;66.34;98567.50;4971876;28;19926;-80
2021/05/01 11:52:56;;;;;;;;;;;;;;;10.71;65.01;98574.50;4956097;29;20298;-80
2021/05/01 11:55:28;;;;;;;;;;;;;;;10.61;63.41;98570.28;4890934;29;19935;-80
2021/05/01 11:57:56;;;;;;;;;;;;;;;10.54;64.28;98566.66;4896701;29;19928;-81
2021/05/01 12:00:29;;;;;;;;;;;;;;;10.54;64.93;98577.53;4934746;28;20365;-80
2021/05/01 12:02:56;;;;;;;;;;;;;;;10.33;65.35;98575.72;4978185;28;19957;-81
2021/05/01 12:05:23;;;;;;;;;;;;;;;10.06;67.64;98570.03;4974130;28;19930;-81
2021/05/01 12:07:53;;;;;;;;;;;;;;;10.19;65.90;98563.91;4975028;28;19930;-81
2021/05/01 12:10:20;;;;;;;;;;;;;;;10.14;66.48;98560.91;4981932;28;19937;-81
2021/05/01 12:12:50;;;;;;;;;;;;;;;10.12;64.67;98559.41;4983073;28;19930;-81
2021/05/01 12:15:17;;;;;;;;;;;;;;;10.16;66.40;98561.56;4982598;28;19926;-81
2021/05/01 12:17:49;;;;;;;;;;;;;;;10.24;66.57;98566.84;4981433;28;19933;-81
2021/05/01 12:20:17;;;;;;;;;;;;;;;10.20;68.24;98560.13;4974387;28;19934;-81
2021/05/01 12:22:44;;;;;;;;;;;;;;;10.47;70.38;98557.63;4972920;28;20270;-81
2021/05/01 12:25:28;;;;;;;;;;;;;;;10.45;69.23;98543.41;4948530;28;20298;-81
2021/05/01 12:27:56;;;;;;;;;;;;;;;10.68;66.41;98548.56;4973504;28;20293;-82
2021/05/01 12:30:40;;;;;;;;;;;;;;;10.59;67.84;98539.72;4974312;28;19981;-81
2021/05/01 12:33:21;;;;;;;;;;;;;;;10.61;65.89;98540.38;4976773;28;19926;-81
2021/05/01 12:35:48;;;;;;;;;;;;;;;10.48;70.81;98537.56;4974909;28;19926;-81
2021/05/01 12:38:15;;;;;;;;;;;;;;;10.47;70.12;98541.31;4974404;28;19926;-81
2021/05/01 12:40:41;;;;;;;;;;;;;;;10.51;69.21;98542.63;4974615;28;19938;-81
2021/05/01 12:43:22;;;;;;;;;;;;;;;10.56;67.84;98544.72;4975154;28;19934;-81
2021/05/01 12:45:49;;;;;;;;;;;;;;;10.69;70.86;98539.38;4975304;28;19926;-81
2021/05/01 12:48:42;;;;;;;;;;;;;;;10.54;67.92;98527.78;4965816;28;20388;-81
2021/05/01 12:51:11;;;;;;;;;;;;;;;10.54;66.50;98519.63;4955526;29;19926;-81
2021/05/01 12:53:38;;;;;;;;;;;;;;;10.34;69.70;98522.22;4957014;28;19933;-82
2021/05/01 12:56:13;;;;;;;;;;;;;;;10.42;67.75;98528.34;4988839;28;20020;-82
2021/05/01 12:58:39;;;;;;;;;;;;;;;10.32;66.79;98521.56;4993558;28;19926;-81
2021/05/01 13:01:21;;;;;;;;;;;;;;;10.35;69.31;98511.16;4987043;28;19952;-81